Prof. Albrecht Penck — Y3CH — position and weather

sailwx.info

Track history (hours):
 
Tides and Currents Weather Stations Pressure Air Temp Water Temp Dewpoint Dewpoint Depression Visibility Wind Speed Wind Dir Waves Ship Positions

Oceanographic research ship Prof. Albrecht Penck (Germany)

Detailed information on ship capabilities available from University of Delaware's Ocean Information Center.

Last reported at 2019-Feb-16 08:10 UTC. Time now 2019-Feb-23 22:50 UTC.
Position N 38°60' E 003°25'.

Length 38.6 m; beam 7.2 m; draft 3.2 m.

Type: Cargo ship. MMSI: 211215130.

Date/timePositionNaut miles runAvg speedWind from/ knotsBaromVisibWave heightAir tempDewpointWater temp
2019-Feb-16 08:10N 38°60' E 003°25'1 5.3
2019-Feb-16 07:57N 39°00' E 003°23'4 5.4
2019-Feb-16 07:15N 39°01' E 003°19'2 5.6
2019-Feb-16 06:55N 39°01' E 003°16'2 5.5
2019-Feb-16 06:29N 39°02' E 003°13'4 5.5
2019-Feb-16 05:50N 39°03' E 003°09'2 5.6
2019-Feb-16 05:30N 39°03' E 003°07'3 5.5
2019-Feb-16 05:00N 39°04' E 003°03'3 5.7
2019-Feb-16 04:31N 39°05' E 002°60'3 5.6
2019-Feb-16 04:01N 39°06' E 002°56'3 5.6
2019-Feb-16 03:30N 39°07' E 002°53'5 6.1
2019-Feb-16 02:37N 39°11' E 002°49'1 6.1
2019-Feb-16 02:26N 39°12' E 002°48'3 5.9
2019-Feb-16 02:00N 39°14' E 002°46'3 5.9
2019-Feb-16 01:30N 39°16' E 002°44'3 5.8
2019-Feb-16 01:00N 39°19' E 002°41'3 5.6
2019-Feb-16 00:30N 39°21' E 002°40'3 5.7
2019-Feb-16 00:00N 39°24' E 002°39'3 5.6
2019-Feb-15 23:30N 39°27' E 002°39'3 5.1
2019-Feb-15 23:00N 39°29' E 002°39'2 4.2
2019-Feb-15 22:30N 39°31' E 002°39'2 3.8
2019-Feb-15 22:00N 39°33' E 002°38'0 0.6
2019-Feb-15 21:30N 39°33' E 002°38'0 0.0
2019-Feb-15 21:00N 39°33' E 002°38'0 0.0
2019-Feb-15 20:30N 39°33' E 002°38'0 0.0
2019-Feb-15 20:00N 39°33' E 002°38'0 0.0
2019-Feb-15 19:30N 39°33' E 002°38'0 0.0
2019-Feb-15 19:00N 39°33' E 002°38'0 0.0
2019-Feb-15 18:30N 39°33' E 002°38'0 0.0
2019-Feb-15 18:00N 39°33' E 002°38'0 0.0
2019-Feb-15 17:30N 39°33' E 002°38'0 0.0
2019-Feb-15 17:00N 39°33' E 002°38'0 0.0
2019-Feb-15 16:30N 39°33' E 002°38'0 0.0
2019-Feb-15 16:00N 39°33' E 002°38'0 0.0
2019-Feb-15 15:30N 39°33' E 002°38'0 0.0
2019-Feb-15 15:00N 39°33' E 002°38'0 0.0
2019-Feb-15 14:30N 39°33' E 002°38'0 0.0
2019-Feb-15 14:00N 39°33' E 002°38'0 0.0
2019-Feb-15 13:30N 39°33' E 002°38'0 0.0
2019-Feb-15 13:00N 39°33' E 002°38'0 0.0
2019-Feb-15 12:30N 39°33' E 002°38'0 0.0
2019-Feb-15 12:00N 39°33' E 002°38'0 0.0
2019-Feb-15 11:30N 39°33' E 002°38'0 0.0
2019-Feb-15 11:00N 39°33' E 002°38'0 0.0
2019-Feb-15 10:30N 39°33' E 002°38'0 0.0
2019-Feb-15 10:00N 39°33' E 002°38'0 0.0
2019-Feb-15 09:30N 39°33' E 002°38'0 0.0
2019-Feb-15 09:00N 39°33' E 002°38'0 0.0
2019-Feb-15 08:30N 39°33' E 002°38'0 0.0
2019-Feb-15 08:00N 39°33' E 002°38'0 0.0
2019-Feb-15 07:30N 39°33' E 002°38'0 0.0
2019-Feb-15 07:00N 39°33' E 002°38'0 0.0
2019-Feb-15 06:30N 39°33' E 002°38'0 0.0
2019-Feb-15 06:00N 39°33' E 002°38'0 0.0
2019-Feb-15 05:30N 39°33' E 002°38'0 0.0
2019-Feb-15 05:00N 39°33' E 002°38'0 0.0
2019-Feb-15 04:30N 39°33' E 002°38'0 0.0
2019-Feb-15 04:00N 39°33' E 002°38'0 0.0
2019-Feb-15 03:30N 39°33' E 002°38'0 0.0
2019-Feb-15 03:00N 39°33' E 002°38'0 0.0
2019-Feb-15 02:30N 39°33' E 002°38'0 0.0
2019-Feb-15 02:00N 39°33' E 002°38'0 0.0
2019-Feb-15 01:30N 39°33' E 002°38'0 0.0
2019-Feb-15 01:00N 39°33' E 002°38'0 0.0
2019-Feb-15 00:30N 39°33' E 002°38'0 0.0
2019-Feb-15 00:00N 39°33' E 002°38'0 0.0
2019-Feb-14 23:30N 39°33' E 002°38'0 0.0
2019-Feb-14 23:00N 39°33' E 002°38'0 0.0
2019-Feb-14 22:30N 39°33' E 002°38'0 0.0
2019-Feb-14 22:00N 39°33' E 002°38'0 0.0
2019-Feb-14 21:30N 39°33' E 002°38'0 0.0
2019-Feb-14 21:00N 39°33' E 002°38'0 0.0
2019-Feb-14 20:30N 39°33' E 002°38'0 0.0
2019-Feb-14 20:00N 39°33' E 002°38'0 0.0
2019-Feb-14 19:30N 39°33' E 002°38'0 0.0
2019-Feb-14 19:00N 39°33' E 002°38'0 0.0
2019-Feb-14 18:30N 39°33' E 002°38'0 0.0
2019-Feb-14 18:00N 39°33' E 002°38'0 0.0
2019-Feb-14 17:30N 39°33' E 002°38'0 0.0
2019-Feb-14 17:00N 39°33' E 002°38'0 0.0
2019-Feb-14 16:24N 39°33' E 002°38'0 0.0
2019-Feb-14 16:00N 39°33' E 002°38'0 0.0
2019-Feb-14 15:30N 39°33' E 002°38'0 0.0
2019-Feb-14 15:00N 39°33' E 002°38'0 0.0
2019-Feb-14 14:30N 39°33' E 002°38'0 0.0
2019-Feb-14 14:00N 39°33' E 002°38'0 0.0
2019-Feb-14 13:30N 39°33' E 002°38'0 0.0
2019-Feb-14 13:00N 39°33' E 002°38'0 0.0
2019-Feb-14 12:30N 39°33' E 002°38'0 0.0
2019-Feb-14 12:00N 39°33' E 002°38'0 0.0
2019-Feb-14 11:30N 39°33' E 002°38'0 0.0
2019-Feb-14 11:00N 39°33' E 002°38'0 0.0
2019-Feb-14 10:30N 39°33' E 002°38'0 0.0
2019-Feb-14 10:00N 39°33' E 002°38'0 0.0
2019-Feb-14 09:30N 39°33' E 002°38'0 0.0
2019-Feb-14 09:00N 39°33' E 002°38'0 0.0
2019-Feb-14 08:31N 39°33' E 002°38'0 0.0
2019-Feb-14 08:01N 39°33' E 002°38'0 0.0
2019-Feb-14 07:30N 39°33' E 002°38'0 0.0
2019-Feb-14 07:01N 39°33' E 002°38'0 0.0
2019-Feb-14 06:31N 39°33' E 002°38'0 0.0
2019-Feb-14 06:00N 39°33' E 002°38'0 0.0
2019-Feb-14 05:27N 39°33' E 002°38'0 0.0
2019-Feb-14 05:01N 39°33' E 002°38'0 0.0
2019-Feb-14 04:30N 39°33' E 002°38'0 0.0
2019-Feb-14 04:00N 39°33' E 002°38'0 0.0
2019-Feb-14 03:01N 39°33' E 002°38'0 0.0
2019-Feb-14 02:31N 39°33' E 002°38'0 0.0
2019-Feb-14 02:00N 39°33' E 002°38'0 0.0
2019-Feb-14 01:31N 39°33' E 002°38'0 0.0
2019-Feb-14 01:00N 39°33' E 002°38'0 0.0
2019-Feb-14 00:30N 39°33' E 002°38'0 0.0
2019-Feb-14 00:01N 39°33' E 002°38'0 0.0
2019-Feb-13 23:30N 39°33' E 002°38'0 0.0
2019-Feb-13 23:00N 39°33' E 002°38'0 0.0
2019-Feb-13 22:30N 39°33' E 002°38'0 0.0
2019-Feb-13 22:00N 39°33' E 002°38'0 0.0
2019-Feb-13 21:30N 39°33' E 002°38'0 0.0
2019-Feb-13 21:00N 39°33' E 002°38'0 0.0
2019-Feb-13 20:31N 39°33' E 002°38'0 0.0
2019-Feb-13 20:00N 39°33' E 002°38'0 0.0
2019-Feb-13 19:31N 39°33' E 002°38'0 0.0
2019-Feb-13 19:00N 39°33' E 002°38'0 0.0
2019-Feb-13 18:31N 39°33' E 002°38'0 0.0
2019-Feb-13 18:00N 39°33' E 002°38'0 0.0
2019-Feb-13 17:30N 39°33' E 002°38'0 0.0
2019-Feb-13 17:00N 39°33' E 002°38'0 0.0
2019-Feb-13 16:31N 39°33' E 002°38'0 0.0
2019-Feb-13 16:00N 39°33' E 002°38'0 0.0
2019-Feb-13 15:31N 39°33' E 002°38'0 0.0
2019-Feb-13 15:00N 39°33' E 002°38'0 0.0
2019-Feb-13 14:31N 39°33' E 002°38'0 0.0
2019-Feb-13 14:01N 39°33' E 002°38'0 0.0
2019-Feb-13 13:30N 39°33' E 002°38'0 0.0
2019-Feb-13 13:01N 39°33' E 002°38'0 0.0
2019-Feb-13 12:30N 39°33' E 002°38'0 0.0
2019-Feb-13 12:00N 39°33' E 002°38'0 0.0
2019-Feb-13 11:30N 39°33' E 002°38'0 0.0
2019-Feb-13 11:01N 39°33' E 002°38'0 0.0
2019-Feb-13 10:31N 39°33' E 002°38'0 0.0
2019-Feb-13 10:00N 39°33' E 002°38'0 0.0
2019-Feb-13 09:30N 39°33' E 002°38'0 0.0
2019-Feb-13 09:01N 39°33' E 002°38'0 0.0
2019-Feb-13 08:31N 39°33' E 002°38'0 0.0
2019-Feb-13 08:01N 39°33' E 002°38'0 0.0
2019-Feb-13 07:31N 39°33' E 002°38'0 0.0
2019-Feb-13 07:00N 39°33' E 002°38'0 0.0
2019-Feb-13 06:31N 39°33' E 002°38'0 0.0
2019-Feb-13 06:01N 39°33' E 002°38'0 0.0
2019-Feb-13 05:30N 39°33' E 002°38'0 0.0
2019-Feb-13 05:01N 39°33' E 002°38'0 0.0
2019-Feb-13 04:31N 39°33' E 002°38'0 0.0
2019-Feb-13 04:00N 39°33' E 002°38'0 0.0
2019-Feb-13 03:30N 39°33' E 002°38'0 0.0
2019-Feb-13 03:00N 39°33' E 002°38'0 0.0
2019-Feb-13 02:30N 39°33' E 002°38'0 0.0
2019-Feb-13 02:00N 39°33' E 002°38'0 0.0
2019-Feb-13 01:30N 39°33' E 002°38'0 0.0
2019-Feb-13 01:00N 39°33' E 002°38'0 0.0
2019-Feb-13 00:31N 39°33' E 002°38'0 0.0
2019-Feb-13 00:00N 39°33' E 002°38'0 0.0
2019-Feb-12 23:30N 39°33' E 002°38'0 0.0
2019-Feb-12 23:01N 39°33' E 002°38'0 0.0
2019-Feb-12 22:30N 39°33' E 002°38'0 0.0
2019-Feb-12 22:01N 39°33' E 002°38'0 0.0
2019-Feb-12 21:31N 39°33' E 002°38'0 0.0
2019-Feb-12 21:00N 39°33' E 002°38'0 0.0
2019-Feb-12 20:31N 39°33' E 002°38'0 0.0
2019-Feb-12 20:01N 39°33' E 002°38'0 0.0
2019-Feb-12 19:31N 39°33' E 002°38'0 0.0
2019-Feb-12 19:00N 39°33' E 002°38'0 0.0
2019-Feb-12 18:31N 39°33' E 002°38'0 0.0
2019-Feb-12 18:01N 39°33' E 002°38'0 0.0
2019-Feb-12 17:30N 39°33' E 002°38'0 0.0
2019-Feb-12 17:01N 39°33' E 002°38'0 0.0
2019-Feb-12 16:30N 39°33' E 002°38'0 0.0
2019-Feb-12 16:00N 39°33' E 002°38'0 0.0
2019-Feb-12 15:31N 39°33' E 002°38'0 0.0
2019-Feb-12 15:00N 39°33' E 002°38'0 0.0
2019-Feb-12 14:30N 39°33' E 002°38'0 0.0
2019-Feb-12 14:01N 39°33' E 002°38'0 0.0
2019-Feb-12 13:31N 39°33' E 002°38'0 0.0
2019-Feb-12 13:01N 39°33' E 002°38'0 0.0
2019-Feb-12 12:31N 39°33' E 002°38'0 0.0
2019-Feb-12 12:00N 39°33' E 002°38'0 0.0
2019-Feb-12 11:31N 39°33' E 002°38'0 0.0
2019-Feb-12 11:00N 39°33' E 002°38'0 0.0
2019-Feb-12 10:30N 39°33' E 002°38'0 0.0
2019-Feb-12 10:00N 39°33' E 002°38'0 0.0
2019-Feb-12 09:30N 39°33' E 002°38'0 0.0
2019-Feb-12 09:01N 39°33' E 002°38'0 0.0
2019-Feb-12 08:30N 39°33' E 002°38'0 0.0
2019-Feb-12 08:01N 39°33' E 002°38'0 0.0
2019-Feb-12 07:31N 39°33' E 002°38'0 0.0
2019-Feb-12 07:00N 39°33' E 002°38'0 0.0
2019-Feb-12 06:31N 39°33' E 002°38'0 0.0
2019-Feb-12 06:00N 39°33' E 002°38'0 0.0
2019-Feb-12 05:30N 39°33' E 002°38'0 0.0
2019-Feb-12 05:00N 39°33' E 002°38'0 0.0
2019-Feb-12 04:31N 39°33' E 002°38'0 0.0
2019-Feb-12 04:00N 39°33' E 002°38'0 0.0
2019-Feb-12 03:30N 39°33' E 002°38'0 0.0
2019-Feb-12 03:01N 39°33' E 002°38'0 0.0
2019-Feb-12 02:31N 39°33' E 002°38'0 0.0
2019-Feb-12 02:00N 39°33' E 002°38'0 0.0
2019-Feb-12 01:31N 39°33' E 002°38'0 0.0
2019-Feb-12 01:00N 39°33' E 002°38'0 0.0
2019-Feb-12 00:31N 39°33' E 002°38'0 0.0
2019-Feb-12 00:00N 39°33' E 002°38'0 0.0
2019-Feb-11 23:31N 39°33' E 002°38'0 0.0
2019-Feb-11 23:01N 39°33' E 002°38'0 0.0
2019-Feb-11 22:30N 39°33' E 002°38'0 0.0
2019-Feb-11 22:00N 39°33' E 002°38'0 0.0
2019-Feb-11 21:27N 39°33' E 002°38'0 0.0
2019-Feb-11 21:00N 39°33' E 002°38'0 0.0
2019-Feb-11 20:31N 39°33' E 002°38'0 0.0
2019-Feb-11 20:00N 39°33' E 002°38'0 0.0
2019-Feb-11 19:31N 39°33' E 002°38'0 0.0
2019-Feb-11 19:00N 39°33' E 002°38'0 0.0
2019-Feb-11 18:30N 39°33' E 002°38'0 0.0
2019-Feb-11 18:01N 39°33' E 002°38'0 0.0
2019-Feb-11 17:30N 39°33' E 002°38'0 0.0
2019-Feb-11 17:00N 39°33' E 002°38'0 0.0
2019-Feb-11 16:30N 39°33' E 002°38'0 0.0
2019-Feb-11 16:01N 39°33' E 002°38'0 0.0
2019-Feb-11 15:30N 39°33' E 002°38'0 0.0
2019-Feb-11 15:00N 39°33' E 002°38'0 0.0
2019-Feb-11 14:30N 39°33' E 002°38'0 0.0
2019-Feb-11 14:01N 39°33' E 002°38'0 0.0
2019-Feb-11 13:30N 39°33' E 002°38'0 0.0
2019-Feb-11 13:00N 39°33' E 002°38'0 0.0
2019-Feb-11 12:30N 39°33' E 002°38'0 0.0
2019-Feb-11 12:01N 39°33' E 002°38'0 0.0
2019-Feb-11 11:30N 39°33' E 002°38'0 0.0
2019-Feb-11 11:00N 39°33' E 002°38'0 0.0
2019-Feb-11 10:30N 39°33' E 002°38'0 0.0
2019-Feb-11 10:00N 39°33' E 002°38'0 0.0
2019-Feb-11 09:31N 39°33' E 002°38'0 0.0
2019-Feb-11 09:00N 39°33' E 002°38'0 0.0
2019-Feb-11 08:30N 39°33' E 002°38'0 0.0
2019-Feb-11 08:00N 39°33' E 002°38'0 0.0
2019-Feb-11 07:27N 39°33' E 002°38'0 0.0
2019-Feb-11 07:00N 39°33' E 002°38'0 0.0
2019-Feb-11 06:31N 39°33' E 002°38'0 0.0
2019-Feb-11 06:00N 39°33' E 002°38'0 0.0
2019-Feb-11 05:31N 39°33' E 002°38'0 0.0
2019-Feb-11 05:00N 39°33' E 002°38'0 0.0
2019-Feb-11 04:31N 39°33' E 002°38'0 0.0
2019-Feb-11 04:01N 39°33' E 002°38'0 0.0
2019-Feb-11 03:31N 39°33' E 002°38'0 0.0
2019-Feb-11 03:01N 39°33' E 002°38'0 0.0
2019-Feb-11 02:31N 39°33' E 002°38'0 0.0
2019-Feb-11 02:01N 39°33' E 002°38'0 0.0
2019-Feb-11 01:30N 39°33' E 002°38'0 0.0
2019-Feb-11 01:00N 39°33' E 002°38'0 0.0
2019-Feb-11 00:30N 39°33' E 002°38'0 0.0
2019-Feb-11 00:01N 39°33' E 002°38'0 0.0
2019-Feb-10 23:30N 39°33' E 002°38'0 0.0
2019-Feb-10 23:00N 39°33' E 002°38'0 0.0
2019-Feb-10 22:30N 39°33' E 002°38'0 0.0
2019-Feb-10 22:00N 39°33' E 002°38'0 0.0
2019-Feb-10 21:31N 39°33' E 002°38'0 0.0
2019-Feb-10 21:01N 39°33' E 002°38'0 0.0
2019-Feb-10 20:31N 39°33' E 002°38'0 0.0
2019-Feb-10 20:00N 39°33' E 002°38'0 0.0
2019-Feb-10 19:30N 39°33' E 002°38'0 0.0
2019-Feb-10 19:00N 39°33' E 002°38'0 0.0
2019-Feb-10 18:30N 39°33' E 002°38'0 0.0
2019-Feb-10 18:01N 39°33' E 002°38'0 0.0
2019-Feb-10 17:30N 39°33' E 002°38'0 0.0
2019-Feb-10 17:00N 39°33' E 002°38'0 0.0
2019-Feb-10 16:30N 39°33' E 002°38'0 0.0
2019-Feb-10 16:01N 39°33' E 002°38'0 0.0
2019-Feb-10 15:31N 39°33' E 002°38'0 0.0
2019-Feb-10 15:01N 39°33' E 002°38'0 0.0
2019-Feb-10 14:31N 39°33' E 002°38'0 0.0
2019-Feb-10 14:01N 39°33' E 002°38'0 0.0
2019-Feb-10 13:31N 39°33' E 002°38'0 0.0
2019-Feb-10 13:01N 39°33' E 002°38'0 0.0
2019-Feb-10 12:30N 39°33' E 002°38'0 0.0
2019-Feb-10 12:01N 39°33' E 002°38'0 0.0
2019-Feb-10 11:30N 39°33' E 002°38'0 0.0
2019-Feb-10 11:01N 39°33' E 002°38'0 0.0
2019-Feb-10 10:30N 39°33' E 002°38'0 0.0
2019-Feb-10 10:00N 39°33' E 002°38'0 0.0
2019-Feb-10 09:30N 39°33' E 002°38'0 0.0
2019-Feb-10 09:00N 39°33' E 002°38'0 0.0
2019-Feb-10 08:31N 39°33' E 002°38'0 0.0
2019-Feb-10 08:01N 39°33' E 002°38'0 0.0
2019-Feb-10 07:30N 39°33' E 002°38'0 0.0
2019-Feb-10 07:00N 39°33' E 002°38'0 0.0
2019-Feb-10 06:30N 39°33' E 002°38'0 0.0
2019-Feb-10 06:01N 39°33' E 002°38'0 0.0
2019-Feb-10 05:30N 39°33' E 002°38'0 0.0
2019-Feb-10 05:01N 39°33' E 002°38'0 0.0
2019-Feb-10 04:30N 39°33' E 002°38'0 0.0
2019-Feb-10 04:01N 39°33' E 002°38'0 0.0
2019-Feb-10 03:30N 39°33' E 002°38'0 0.0
2019-Feb-10 03:00N 39°33' E 002°38'0 0.0
2019-Feb-10 02:30N 39°33' E 002°38'0 0.0
2019-Feb-10 02:00N 39°33' E 002°38'0 0.0
2019-Feb-10 01:31N 39°33' E 002°38'0 0.0
2019-Feb-10 01:00N 39°33' E 002°38'0 0.0
2019-Feb-10 00:31N 39°33' E 002°38'0 0.0
2019-Feb-10 00:00N 39°33' E 002°38'0 0.0
2019-Feb-09 23:30N 39°33' E 002°38'0 0.0
2019-Feb-09 23:01N 39°33' E 002°38'0 0.0
2019-Feb-09 22:31N 39°33' E 002°38'0 0.0
2019-Feb-09 22:01N 39°33' E 002°38'0 0.0
2019-Feb-09 21:31N 39°33' E 002°38'0 0.0
2019-Feb-09 21:00N 39°33' E 002°38'0 0.0
2019-Feb-09 20:28N 39°33' E 002°38'0 0.0
2019-Feb-09 20:00N 39°33' E 002°38'0 0.0
2019-Feb-09 19:30N 39°33' E 002°38'0 0.0
2019-Feb-09 19:01N 39°33' E 002°38'0 0.0
2019-Feb-09 18:28N 39°33' E 002°38'0 0.0
2019-Feb-09 18:01N 39°33' E 002°38'0 0.0
2019-Feb-09 17:31N 39°33' E 002°38'0 0.0
2019-Feb-09 17:01N 39°33' E 002°38'0 0.0
2019-Feb-09 16:28N 39°33' E 002°38'0 0.0
2019-Feb-09 15:58N 39°33' E 002°38'0 0.0
2019-Feb-09 15:31N 39°33' E 002°38'0 0.0
2019-Feb-09 15:00N 39°33' E 002°38'0 0.0
2019-Feb-09 14:31N 39°33' E 002°38'0 0.0
2019-Feb-09 14:00N 39°33' E 002°38'0 0.0
2019-Feb-09 13:31N 39°33' E 002°38'0 0.0
2019-Feb-09 13:01N 39°33' E 002°38'0 0.0
2019-Feb-09 12:30N 39°33' E 002°38'0 0.0
2019-Feb-09 12:01N 39°33' E 002°38'0 0.0
2019-Feb-09 11:31N 39°33' E 002°38'0 0.0
2019-Feb-09 11:00N 39°33' E 002°38'0 0.0
2019-Feb-09 10:25N 39°33' E 002°38'0 0.0
2019-Feb-09 10:01N 39°33' E 002°38'0 0.0
2019-Feb-09 09:31N 39°33' E 002°38'0 0.0
2019-Feb-09 09:01N 39°33' E 002°38'0 0.0
2019-Feb-09 08:31N 39°33' E 002°38'0 0.0
2019-Feb-09 08:01N 39°33' E 002°38'0 0.0
2019-Feb-09 07:30N 39°33' E 002°38'0 0.0
2019-Feb-09 07:00N 39°33' E 002°38'0 0.0
2019-Feb-09 06:30N 39°33' E 002°38'0 0.0
2019-Feb-09 06:00N 39°33' E 002°38'0 0.0
2019-Feb-09 05:30N 39°33' E 002°38'0 0.0
2019-Feb-09 05:00N 39°33' E 002°38'0 0.0
2019-Feb-09 04:30N 39°33' E 002°38'0 0.0
2019-Feb-09 04:00N 39°33' E 002°38'0 0.0
2019-Feb-09 03:31N 39°33' E 002°38'0 0.0
2019-Feb-09 03:01N 39°33' E 002°38'0 0.0
2019-Feb-09 02:30N 39°33' E 002°38'0 0.0
2019-Feb-09 02:00N 39°33' E 002°38'0 0.0
2019-Feb-09 01:31N 39°33' E 002°38'0 0.0
2019-Feb-09 01:00N 39°33' E 002°38'0 0.0
2019-Feb-09 00:30N 39°33' E 002°38'0 0.0
2019-Feb-09 00:01N 39°33' E 002°38'0 0.0
2019-Feb-08 23:31N 39°33' E 002°38'0 0.0
2019-Feb-08 23:00N 39°33' E 002°38'0 0.0
2019-Feb-08 22:30N 39°33' E 002°38'0 0.0
2019-Feb-08 22:00N 39°33' E 002°38'0 0.0
2019-Feb-08 21:30N 39°33' E 002°38'0 0.0
2019-Feb-08 21:01N 39°33' E 002°38'0 0.0
2019-Feb-08 20:30N 39°33' E 002°38'0 0.0
2019-Feb-08 20:01N 39°33' E 002°38'0 0.0
2019-Feb-08 19:31N 39°33' E 002°38'0 0.0
2019-Feb-08 19:01N 39°33' E 002°38'0 0.0
2019-Feb-08 18:30N 39°33' E 002°38'0 0.0
2019-Feb-08 17:58N 39°33' E 002°38'0 0.0
2019-Feb-08 17:30N 39°33' E 002°38'0 0.0
2019-Feb-08 17:01N 39°33' E 002°38'0 0.0
2019-Feb-08 16:31N 39°33' E 002°38'0 0.0
2019-Feb-08 16:01N 39°33' E 002°38'0 0.0
2019-Feb-08 15:30N 39°33' E 002°38'0 0.0
2019-Feb-08 14:57N 39°33' E 002°38'0 0.0
2019-Feb-08 14:31N 39°33' E 002°38'0 0.0
2019-Feb-08 14:01N 39°33' E 002°38'0 0.0
2019-Feb-08 13:31N 39°33' E 002°38'0 0.0
2019-Feb-08 13:00N 39°33' E 002°38'0 0.0
2019-Feb-08 12:30N 39°33' E 002°38'0 0.0
2019-Feb-08 12:01N 39°33' E 002°38'0 0.0
2019-Feb-08 11:30N 39°33' E 002°38'0 0.0
2019-Feb-08 11:00N 39°33' E 002°38'0 0.0
2019-Feb-08 10:31N 39°33' E 002°38'0 0.0
2019-Feb-08 10:00N 39°33' E 002°38'0 0.0
2019-Feb-08 09:31N 39°33' E 002°38'0 0.0
2019-Feb-08 09:01N 39°33' E 002°38'0 0.0
2019-Feb-08 08:30N 39°33' E 002°38'0 0.0
2019-Feb-08 07:58N 39°33' E 002°38'0 0.0
2019-Feb-08 07:30N 39°33' E 002°38'0 0.0
2019-Feb-08 07:01N 39°33' E 002°38'0 0.0
2019-Feb-08 06:31N 39°33' E 002°38'0 0.0
2019-Feb-08 06:01N 39°33' E 002°38'0 0.0
2019-Feb-08 05:31N 39°33' E 002°38'0 0.0
2019-Feb-08 04:58N 39°33' E 002°38'0 0.0
2019-Feb-08 04:31N 39°33' E 002°38'0 0.0
2019-Feb-08 04:00N 39°33' E 002°38'0 0.0
2019-Feb-08 03:31N 39°33' E 002°38'0 0.0
2019-Feb-08 03:00N 39°33' E 002°38'0 0.0
2019-Feb-08 02:30N 39°33' E 002°38'0 0.0
2019-Feb-08 02:00N 39°33' E 002°38'0 0.0
2019-Feb-08 01:31N 39°33' E 002°38'0 0.0
2019-Feb-08 01:00N 39°33' E 002°38'0 0.0
2019-Feb-08 00:30N 39°33' E 002°38'0 0.0
2019-Feb-08 00:01N 39°33' E 002°38'0 0.0
2019-Feb-07 23:31N 39°33' E 002°38'0 0.0
2019-Feb-07 23:00N 39°33' E 002°38'0 0.0
2019-Feb-07 22:31N 39°33' E 002°38'0 0.0
2019-Feb-07 22:01N 39°33' E 002°38'0 0.0
2019-Feb-07 21:30N 39°33' E 002°38'0 0.0
2019-Feb-07 21:00N 39°33' E 002°38'0 0.0
2019-Feb-07 20:31N 39°33' E 002°38'0 0.0
2019-Feb-07 20:01N 39°33' E 002°38'0 0.0
2019-Feb-07 19:30N 39°33' E 002°38'0 0.0
2019-Feb-07 19:00N 39°33' E 002°38'0 0.0
2019-Feb-07 18:31N 39°33' E 002°38'0 0.0
2019-Feb-07 18:00N 39°33' E 002°38'0 0.0
2019-Feb-07 17:31N 39°33' E 002°38'0 0.0
2019-Feb-07 17:00N 39°33' E 002°38'0 0.0
2019-Feb-07 16:30N 39°33' E 002°38'0 0.0
2019-Feb-07 16:01N 39°33' E 002°38'0 0.0
2019-Feb-07 15:31N 39°33' E 002°38'0 0.0
2019-Feb-07 15:00N 39°33' E 002°38'0 0.0
2019-Feb-07 14:27N 39°33' E 002°38'0 0.0
2019-Feb-07 14:00N 39°33' E 002°38'0 0.0
2019-Feb-07 13:30N 39°33' E 002°38'0 0.0
2019-Feb-07 13:01N 39°33' E 002°38'0 0.0
2019-Feb-07 12:31N 39°33' E 002°38'0 0.0
2019-Feb-07 12:00N 39°33' E 002°38'0 0.0
2019-Feb-07 11:30N 39°33' E 002°38'0 0.0
2019-Feb-07 11:00N 39°33' E 002°38'0 0.0
2019-Feb-07 10:30N 39°33' E 002°38'0 0.0
2019-Feb-07 09:58N 39°33' E 002°38'0 0.0
2019-Feb-07 09:31N 39°33' E 002°38'0 0.0
2019-Feb-07 09:00N 39°33' E 002°38'0 0.0
2019-Feb-07 08:30N 39°33' E 002°38'0 0.0
2019-Feb-07 08:00N 39°33' E 002°38'0 0.0
2019-Feb-07 07:30N 39°33' E 002°38'0 0.0
2019-Feb-07 07:00N 39°33' E 002°38'0 0.0
2019-Feb-07 06:30N 39°33' E 002°38'0 0.0
2019-Feb-07 06:00N 39°33' E 002°38'0 0.0
2019-Feb-07 05:30N 39°33' E 002°38'0 0.0
2019-Feb-07 05:01N 39°33' E 002°38'0 0.0
2019-Feb-07 04:31N 39°33' E 002°38'0 0.0
2019-Feb-07 04:00N 39°33' E 002°38'0 0.0
2019-Feb-07 03:30N 39°33' E 002°38'0 0.0
2019-Feb-07 03:00N 39°33' E 002°38'0 0.0
2019-Feb-07 02:30N 39°33' E 002°38'0 0.0
2019-Feb-07 02:01N 39°33' E 002°38'0 0.0
2019-Feb-07 01:30N 39°33' E 002°38'0 0.0
2019-Feb-07 01:00N 39°33' E 002°38'0 0.0
2019-Feb-07 00:30N 39°33' E 002°38'0 0.0
2019-Feb-07 00:01N 39°33' E 002°38'0 0.0
2019-Feb-06 23:30N 39°33' E 002°38'0 0.0
2019-Feb-06 23:01N 39°33' E 002°38'0 0.0
2019-Feb-06 22:30N 39°33' E 002°38'0 0.0
2019-Feb-06 22:00N 39°33' E 002°38'0 0.0
2019-Feb-06 21:31N 39°33' E 002°38'0 0.0
2019-Feb-06 21:00N 39°33' E 002°38'0 0.0
2019-Feb-06 20:31N 39°33' E 002°38'0 0.0
2019-Feb-06 20:00N 39°33' E 002°38'0 0.0
2019-Feb-06 19:31N 39°33' E 002°38'0 0.0
2019-Feb-06 19:00N 39°33' E 002°38'0 0.0
2019-Feb-06 18:31N 39°33' E 002°38'0 0.0
2019-Feb-06 18:01N 39°33' E 002°38'0 0.0
2019-Feb-06 17:30N 39°33' E 002°38'0 0.0
2019-Feb-06 17:00N 39°33' E 002°38'0 0.0
2019-Feb-06 16:30N 39°33' E 002°38'0 0.0
2019-Feb-06 16:00N 39°33' E 002°38'0 0.0
2019-Feb-06 15:30N 39°33' E 002°38'0 0.0
2019-Feb-06 15:00N 39°33' E 002°38'0 0.0
2019-Feb-06 14:30N 39°33' E 002°38'0 0.0
2019-Feb-06 14:01N 39°33' E 002°38'0 0.0
2019-Feb-06 13:30N 39°33' E 002°38'0 0.0
2019-Feb-06 13:00N 39°33' E 002°38'0 0.0
2019-Feb-06 12:31N 39°33' E 002°38'0 0.0
2019-Feb-06 12:00N 39°33' E 002°38'0 0.0
2019-Feb-06 11:30N 39°33' E 002°38'0 0.0
2019-Feb-06 10:57N 39°33' E 002°38'0 0.0
2019-Feb-06 10:31N 39°33' E 002°38'0 0.0
2019-Feb-06 10:01N 39°33' E 002°38'0 0.0
2019-Feb-06 09:31N 39°33' E 002°38'0 0.0
2019-Feb-06 09:00N 39°33' E 002°38'0 0.0
2019-Feb-06 08:30N 39°33' E 002°38'  
Track history (hours):
 
Tides and Currents Weather Stations Pressure Air Temp Water Temp Dewpoint Dewpoint Depression Visibility Wind Speed Wind Dir Waves Ship Positions

Oceanographic research ship Prof. Albrecht Penck (Germany)

Detailed information on ship capabilities available from University of Delaware's Ocean Information Center.

Last reported at 2019-Feb-16 08:10 UTC. Time now 2019-Feb-23 22:50 UTC.
Position N 38°60' E 003°25'.

Length 38.6 m; beam 7.2 m; draft 3.2 m.

Type: Cargo ship. MMSI: 211215130.

Date/timePositionNaut miles runAvg speedWind from/ knotsBaromVisibWave heightAir tempDewpointWater temp
2019-Feb-16 08:10N 38°60' E 003°25'1 5.3
2019-Feb-16 07:57N 39°00' E 003°23'4 5.4
2019-Feb-16 07:15N 39°01' E 003°19'2 5.6
2019-Feb-16 06:55N 39°01' E 003°16'2 5.5
2019-Feb-16 06:29N 39°02' E 003°13'4 5.5
2019-Feb-16 05:50N 39°03' E 003°09'2 5.6
2019-Feb-16 05:30N 39°03' E 003°07'3 5.5
2019-Feb-16 05:00N 39°04' E 003°03'3 5.7
2019-Feb-16 04:31N 39°05' E 002°60'3 5.6
2019-Feb-16 04:01N 39°06' E 002°56'3 5.6
2019-Feb-16 03:30N 39°07' E 002°53'5 6.1
2019-Feb-16 02:37N 39°11' E 002°49'1 6.1
2019-Feb-16 02:26N 39°12' E 002°48'3 5.9
2019-Feb-16 02:00N 39°14' E 002°46'3 5.9
2019-Feb-16 01:30N 39°16' E 002°44'3 5.8
2019-Feb-16 01:00N 39°19' E 002°41'3 5.6
2019-Feb-16 00:30N 39°21' E 002°40'3 5.7
2019-Feb-16 00:00N 39°24' E 002°39'3 5.6
2019-Feb-15 23:30N 39°27' E 002°39'3 5.1
2019-Feb-15 23:00N 39°29' E 002°39'2 4.2
2019-Feb-15 22:30N 39°31' E 002°39'2 3.8
2019-Feb-15 22:00N 39°33' E 002°38'0 0.6
2019-Feb-15 21:30N 39°33' E 002°38'0 0.0
2019-Feb-15 21:00N 39°33' E 002°38'0 0.0
2019-Feb-15 20:30N 39°33' E 002°38'0 0.0
2019-Feb-15 20:00N 39°33' E 002°38'0 0.0
2019-Feb-15 19:30N 39°33' E 002°38'0 0.0
2019-Feb-15 19:00N 39°33' E 002°38'0 0.0
2019-Feb-15 18:30N 39°33' E 002°38'0 0.0
2019-Feb-15 18:00N 39°33' E 002°38'0 0.0
2019-Feb-15 17:30N 39°33' E 002°38'0 0.0
2019-Feb-15 17:00N 39°33' E 002°38'0 0.0
2019-Feb-15 16:30N 39°33' E 002°38'0 0.0
2019-Feb-15 16:00N 39°33' E 002°38'0 0.0
2019-Feb-15 15:30N 39°33' E 002°38'0 0.0
2019-Feb-15 15:00N 39°33' E 002°38'0 0.0
2019-Feb-15 14:30N 39°33' E 002°38'0 0.0
2019-Feb-15 14:00N 39°33' E 002°38'0 0.0
2019-Feb-15 13:30N 39°33' E 002°38'0 0.0
2019-Feb-15 13:00N 39°33' E 002°38'0 0.0
2019-Feb-15 12:30N 39°33' E 002°38'0 0.0
2019-Feb-15 12:00N 39°33' E 002°38'0 0.0
2019-Feb-15 11:30N 39°33' E 002°38'0 0.0
2019-Feb-15 11:00N 39°33' E 002°38'0 0.0
2019-Feb-15 10:30N 39°33' E 002°38'0 0.0
2019-Feb-15 10:00N 39°33' E 002°38'0 0.0
2019-Feb-15 09:30N 39°33' E 002°38'0 0.0
2019-Feb-15 09:00N 39°33' E 002°38'0 0.0
2019-Feb-15 08:30N 39°33' E 002°38'0 0.0
2019-Feb-15 08:00N 39°33' E 002°38'0 0.0
2019-Feb-15 07:30N 39°33' E 002°38'0 0.0
2019-Feb-15 07:00N 39°33' E 002°38'0 0.0
2019-Feb-15 06:30N 39°33' E 002°38'0 0.0
2019-Feb-15 06:00N 39°33' E 002°38'0 0.0
2019-Feb-15 05:30N 39°33' E 002°38'0 0.0
2019-Feb-15 05:00N 39°33' E 002°38'0 0.0
2019-Feb-15 04:30N 39°33' E 002°38'0 0.0
2019-Feb-15 04:00N 39°33' E 002°38'0 0.0
2019-Feb-15 03:30N 39°33' E 002°38'0 0.0
2019-Feb-15 03:00N 39°33' E 002°38'0 0.0
2019-Feb-15 02:30N 39°33' E 002°38'0 0.0
2019-Feb-15 02:00N 39°33' E 002°38'0 0.0
2019-Feb-15 01:30N 39°33' E 002°38'0 0.0
2019-Feb-15 01:00N 39°33' E 002°38'0 0.0
2019-Feb-15 00:30N 39°33' E 002°38'0 0.0
2019-Feb-15 00:00N 39°33' E 002°38'0 0.0
2019-Feb-14 23:30N 39°33' E 002°38'0 0.0
2019-Feb-14 23:00N 39°33' E 002°38'0 0.0
2019-Feb-14 22:30N 39°33' E 002°38'0 0.0
2019-Feb-14 22:00N 39°33' E 002°38'0 0.0
2019-Feb-14 21:30N 39°33' E 002°38'0 0.0
2019-Feb-14 21:00N 39°33' E 002°38'0 0.0
2019-Feb-14 20:30N 39°33' E 002°38'0 0.0
2019-Feb-14 20:00N 39°33' E 002°38'0 0.0
2019-Feb-14 19:30N 39°33' E 002°38'0 0.0
2019-Feb-14 19:00N 39°33' E 002°38'0 0.0
2019-Feb-14 18:30N 39°33' E 002°38'0 0.0
2019-Feb-14 18:00N 39°33' E 002°38'0 0.0
2019-Feb-14 17:30N 39°33' E 002°38'0 0.0
2019-Feb-14 17:00N 39°33' E 002°38'0 0.0
2019-Feb-14 16:24N 39°33' E 002°38'0 0.0
2019-Feb-14 16:00N 39°33' E 002°38'0 0.0
2019-Feb-14 15:30N 39°33' E 002°38'0 0.0
2019-Feb-14 15:00N 39°33' E 002°38'0 0.0
2019-Feb-14 14:30N 39°33' E 002°38'0 0.0
2019-Feb-14 14:00N 39°33' E 002°38'0 0.0
2019-Feb-14 13:30N 39°33' E 002°38'0 0.0
2019-Feb-14 13:00N 39°33' E 002°38'0 0.0
2019-Feb-14 12:30N 39°33' E 002°38'0 0.0
2019-Feb-14 12:00N 39°33' E 002°38'0 0.0
2019-Feb-14 11:30N 39°33' E 002°38'0 0.0
2019-Feb-14 11:00N 39°33' E 002°38'0 0.0
2019-Feb-14 10:30N 39°33' E 002°38'0 0.0
2019-Feb-14 10:00N 39°33' E 002°38'0 0.0
2019-Feb-14 09:30N 39°33' E 002°38'0 0.0
2019-Feb-14 09:00N 39°33' E 002°38'0 0.0
2019-Feb-14 08:31N 39°33' E 002°38'0 0.0
2019-Feb-14 08:01N 39°33' E 002°38'0 0.0
2019-Feb-14 07:30N 39°33' E 002°38'0 0.0
2019-Feb-14 07:01N 39°33' E 002°38'0 0.0
2019-Feb-14 06:31N 39°33' E 002°38'0 0.0
2019-Feb-14 06:00N 39°33' E 002°38'0 0.0
2019-Feb-14 05:27N 39°33' E 002°38'0 0.0
2019-Feb-14 05:01N 39°33' E 002°38'0 0.0
2019-Feb-14 04:30N 39°33' E 002°38'0 0.0
2019-Feb-14 04:00N 39°33' E 002°38'0 0.0
2019-Feb-14 03:01N 39°33' E 002°38'0 0.0
2019-Feb-14 02:31N 39°33' E 002°38'0 0.0
2019-Feb-14 02:00N 39°33' E 002°38'0 0.0
2019-Feb-14 01:31N 39°33' E 002°38'0 0.0
2019-Feb-14 01:00N 39°33' E 002°38'0 0.0
2019-Feb-14 00:30N 39°33' E 002°38'0 0.0
2019-Feb-14 00:01N 39°33' E 002°38'0 0.0
2019-Feb-13 23:30N 39°33' E 002°38'0 0.0
2019-Feb-13 23:00N 39°33' E 002°38'0 0.0
2019-Feb-13 22:30N 39°33' E 002°38'0 0.0
2019-Feb-13 22:00N 39°33' E 002°38'0 0.0
2019-Feb-13 21:30N 39°33' E 002°38'0 0.0
2019-Feb-13 21:00N 39°33' E 002°38'0 0.0
2019-Feb-13 20:31N 39°33' E 002°38'0 0.0
2019-Feb-13 20:00N 39°33' E 002°38'0 0.0
2019-Feb-13 19:31N 39°33' E 002°38'0 0.0
2019-Feb-13 19:00N 39°33' E 002°38'0 0.0
2019-Feb-13 18:31N 39°33' E 002°38'0 0.0
2019-Feb-13 18:00N 39°33' E 002°38'0 0.0
2019-Feb-13 17:30N 39°33' E 002°38'0 0.0
2019-Feb-13 17:00N 39°33' E 002°38'0 0.0
2019-Feb-13 16:31N 39°33' E 002°38'0 0.0
2019-Feb-13 16:00N 39°33' E 002°38'0 0.0
2019-Feb-13 15:31N 39°33' E 002°38'0 0.0
2019-Feb-13 15:00N 39°33' E 002°38'0 0.0
2019-Feb-13 14:31N 39°33' E 002°38'0 0.0
2019-Feb-13 14:01N 39°33' E 002°38'0 0.0
2019-Feb-13 13:30N 39°33' E 002°38'0 0.0
2019-Feb-13 13:01N 39°33' E 002°38'0 0.0
2019-Feb-13 12:30N 39°33' E 002°38'0 0.0
2019-Feb-13 12:00N 39°33' E 002°38'0 0.0
2019-Feb-13 11:30N 39°33' E 002°38'0 0.0
2019-Feb-13 11:01N 39°33' E 002°38'0 0.0
2019-Feb-13 10:31N 39°33' E 002°38'0 0.0
2019-Feb-13 10:00N 39°33' E 002°38'0 0.0
2019-Feb-13 09:30N 39°33' E 002°38'0 0.0
2019-Feb-13 09:01N 39°33' E 002°38'0 0.0
2019-Feb-13 08:31N 39°33' E 002°38'0 0.0
2019-Feb-13 08:01N 39°33' E 002°38'0 0.0
2019-Feb-13 07:31N 39°33' E 002°38'0 0.0
2019-Feb-13 07:00N 39°33' E 002°38'0 0.0
2019-Feb-13 06:31N 39°33' E 002°38'0 0.0
2019-Feb-13 06:01N 39°33' E 002°38'0 0.0
2019-Feb-13 05:30N 39°33' E 002°38'0 0.0
2019-Feb-13 05:01N 39°33' E 002°38'0 0.0
2019-Feb-13 04:31N 39°33' E 002°38'0 0.0
2019-Feb-13 04:00N 39°33' E 002°38'0 0.0
2019-Feb-13 03:30N 39°33' E 002°38'0 0.0
2019-Feb-13 03:00N 39°33' E 002°38'0 0.0
2019-Feb-13 02:30N 39°33' E 002°38'0 0.0
2019-Feb-13 02:00N 39°33' E 002°38'0 0.0
2019-Feb-13 01:30N 39°33' E 002°38'0 0.0
2019-Feb-13 01:00N 39°33' E 002°38'0 0.0
2019-Feb-13 00:31N 39°33' E 002°38'0 0.0
2019-Feb-13 00:00N 39°33' E 002°38'0 0.0
2019-Feb-12 23:30N 39°33' E 002°38'0 0.0
2019-Feb-12 23:01N 39°33' E 002°38'0 0.0
2019-Feb-12 22:30N 39°33' E 002°38'0 0.0
2019-Feb-12 22:01N 39°33' E 002°38'0 0.0
2019-Feb-12 21:31N 39°33' E 002°38'0 0.0
2019-Feb-12 21:00N 39°33' E 002°38'0 0.0
2019-Feb-12 20:31N 39°33' E 002°38'0 0.0
2019-Feb-12 20:01N 39°33' E 002°38'0 0.0
2019-Feb-12 19:31N 39°33' E 002°38'0 0.0
2019-Feb-12 19:00N 39°33' E 002°38'0 0.0
2019-Feb-12 18:31N 39°33' E 002°38'0 0.0
2019-Feb-12 18:01N 39°33' E 002°38'0 0.0
2019-Feb-12 17:30N 39°33' E 002°38'0 0.0
2019-Feb-12 17:01N 39°33' E 002°38'0 0.0
2019-Feb-12 16:30N 39°33' E 002°38'0 0.0
2019-Feb-12 16:00N 39°33' E 002°38'0 0.0
2019-Feb-12 15:31N 39°33' E 002°38'0 0.0
2019-Feb-12 15:00N 39°33' E 002°38'0 0.0
2019-Feb-12 14:30N 39°33' E 002°38'0 0.0
2019-Feb-12 14:01N 39°33' E 002°38'0 0.0
2019-Feb-12 13:31N 39°33' E 002°38'0 0.0
2019-Feb-12 13:01N 39°33' E 002°38'0 0.0
2019-Feb-12 12:31N 39°33' E 002°38'0 0.0
2019-Feb-12 12:00N 39°33' E 002°38'0 0.0
2019-Feb-12 11:31N 39°33' E 002°38'0 0.0
2019-Feb-12 11:00N 39°33' E 002°38'0 0.0
2019-Feb-12 10:30N 39°33' E 002°38'0 0.0
2019-Feb-12 10:00N 39°33' E 002°38'0 0.0
2019-Feb-12 09:30N 39°33' E 002°38'0 0.0
2019-Feb-12 09:01N 39°33' E 002°38'0 0.0
2019-Feb-12 08:30N 39°33' E 002°38'0 0.0
2019-Feb-12 08:01N 39°33' E 002°38'0 0.0
2019-Feb-12 07:31N 39°33' E 002°38'0 0.0
2019-Feb-12 07:00N 39°33' E 002°38'0 0.0
2019-Feb-12 06:31N 39°33' E 002°38'0 0.0
2019-Feb-12 06:00N 39°33' E 002°38'0 0.0
2019-Feb-12 05:30N 39°33' E 002°38'0 0.0
2019-Feb-12 05:00N 39°33' E 002°38'0 0.0
2019-Feb-12 04:31N 39°33' E 002°38'0 0.0
2019-Feb-12 04:00N 39°33' E 002°38'0 0.0
2019-Feb-12 03:30N 39°33' E 002°38'0 0.0
2019-Feb-12 03:01N 39°33' E 002°38'0 0.0
2019-Feb-12 02:31N 39°33' E 002°38'0 0.0
2019-Feb-12 02:00N 39°33' E 002°38'0 0.0
2019-Feb-12 01:31N 39°33' E 002°38'0 0.0
2019-Feb-12 01:00N 39°33' E 002°38'0 0.0
2019-Feb-12 00:31N 39°33' E 002°38'0 0.0
2019-Feb-12 00:00N 39°33' E 002°38'0 0.0
2019-Feb-11 23:31N 39°33' E 002°38'0 0.0
2019-Feb-11 23:01N 39°33' E 002°38'0 0.0
2019-Feb-11 22:30N 39°33' E 002°38'0 0.0
2019-Feb-11 22:00N 39°33' E 002°38'0 0.0
2019-Feb-11 21:27N 39°33' E 002°38'0 0.0
2019-Feb-11 21:00N 39°33' E 002°38'0 0.0
2019-Feb-11 20:31N 39°33' E 002°38'0 0.0
2019-Feb-11 20:00N 39°33' E 002°38'0 0.0
2019-Feb-11 19:31N 39°33' E 002°38'0 0.0
2019-Feb-11 19:00N 39°33' E 002°38'0 0.0
2019-Feb-11 18:30N 39°33' E 002°38'0 0.0
2019-Feb-11 18:01N 39°33' E 002°38'0 0.0
2019-Feb-11 17:30N 39°33' E 002°38'0 0.0
2019-Feb-11 17:00N 39°33' E 002°38'0 0.0
2019-Feb-11 16:30N 39°33' E 002°38'0 0.0
2019-Feb-11 16:01N 39°33' E 002°38'0 0.0
2019-Feb-11 15:30N 39°33' E 002°38'0 0.0
2019-Feb-11 15:00N 39°33' E 002°38'0 0.0
2019-Feb-11 14:30N 39°33' E 002°38'0 0.0
2019-Feb-11 14:01N 39°33' E 002°38'0 0.0
2019-Feb-11 13:30N 39°33' E 002°38'0 0.0
2019-Feb-11 13:00N 39°33' E 002°38'0 0.0
2019-Feb-11 12:30N 39°33' E 002°38'0 0.0
2019-Feb-11 12:01N 39°33' E 002°38'0 0.0
2019-Feb-11 11:30N 39°33' E 002°38'0 0.0
2019-Feb-11 11:00N 39°33' E 002°38'0 0.0
2019-Feb-11 10:30N 39°33' E 002°38'0 0.0
2019-Feb-11 10:00N 39°33' E 002°38'0 0.0
2019-Feb-11 09:31N 39°33' E 002°38'0 0.0
2019-Feb-11 09:00N 39°33' E 002°38'0 0.0
2019-Feb-11 08:30N 39°33' E 002°38'0 0.0
2019-Feb-11 08:00N 39°33' E 002°38'0 0.0
2019-Feb-11 07:27N 39°33' E 002°38'0 0.0
2019-Feb-11 07:00N 39°33' E 002°38'0 0.0
2019-Feb-11 06:31N 39°33' E 002°38'0 0.0
2019-Feb-11 06:00N 39°33' E 002°38'0 0.0
2019-Feb-11 05:31N 39°33' E 002°38'0 0.0
2019-Feb-11 05:00N 39°33' E 002°38'0 0.0
2019-Feb-11 04:31N 39°33' E 002°38'0 0.0
2019-Feb-11 04:01N 39°33' E 002°38'0 0.0
2019-Feb-11 03:31N 39°33' E 002°38'0 0.0
2019-Feb-11 03:01N 39°33' E 002°38'0 0.0
2019-Feb-11 02:31N 39°33' E 002°38'0 0.0
2019-Feb-11 02:01N 39°33' E 002°38'0 0.0
2019-Feb-11 01:30N 39°33' E 002°38'0 0.0
2019-Feb-11 01:00N 39°33' E 002°38'0 0.0
2019-Feb-11 00:30N 39°33' E 002°38'0 0.0
2019-Feb-11 00:01N 39°33' E 002°38'0 0.0
2019-Feb-10 23:30N 39°33' E 002°38'0 0.0
2019-Feb-10 23:00N 39°33' E 002°38'0 0.0
2019-Feb-10 22:30N 39°33' E 002°38'0 0.0
2019-Feb-10 22:00N 39°33' E 002°38'0 0.0
2019-Feb-10 21:31N 39°33' E 002°38'0 0.0
2019-Feb-10 21:01N 39°33' E 002°38'0 0.0
2019-Feb-10 20:31N 39°33' E 002°38'0 0.0
2019-Feb-10 20:00N 39°33' E 002°38'0 0.0
2019-Feb-10 19:30N 39°33' E 002°38'0 0.0
2019-Feb-10 19:00N 39°33' E 002°38'0 0.0
2019-Feb-10 18:30N 39°33' E 002°38'0 0.0
2019-Feb-10 18:01N 39°33' E 002°38'0 0.0
2019-Feb-10 17:30N 39°33' E 002°38'0 0.0
2019-Feb-10 17:00N 39°33' E 002°38'0 0.0
2019-Feb-10 16:30N 39°33' E 002°38'0 0.0
2019-Feb-10 16:01N 39°33' E 002°38'0 0.0
2019-Feb-10 15:31N 39°33' E 002°38'0 0.0
2019-Feb-10 15:01N 39°33' E 002°38'0 0.0
2019-Feb-10 14:31N 39°33' E 002°38'0 0.0
2019-Feb-10 14:01N 39°33' E 002°38'0 0.0
2019-Feb-10 13:31N 39°33' E 002°38'0 0.0
2019-Feb-10 13:01N 39°33' E 002°38'0 0.0
2019-Feb-10 12:30N 39°33' E 002°38'0 0.0
2019-Feb-10 12:01N 39°33' E 002°38'0 0.0
2019-Feb-10 11:30N 39°33' E 002°38'0 0.0
2019-Feb-10 11:01N 39°33' E 002°38'0 0.0
2019-Feb-10 10:30N 39°33' E 002°38'0 0.0
2019-Feb-10 10:00N 39°33' E 002°38'0 0.0
2019-Feb-10 09:30N 39°33' E 002°38'0 0.0
2019-Feb-10 09:00N 39°33' E 002°38'0 0.0
2019-Feb-10 08:31N 39°33' E 002°38'0 0.0
2019-Feb-10 08:01N 39°33' E 002°38'0 0.0
2019-Feb-10 07:30N 39°33' E 002°38'0 0.0
2019-Feb-10 07:00N 39°33' E 002°38'0 0.0
2019-Feb-10 06:30N 39°33' E 002°38'0 0.0
2019-Feb-10 06:01N 39°33' E 002°38'0 0.0
2019-Feb-10 05:30N 39°33' E 002°38'0 0.0
2019-Feb-10 05:01N 39°33' E 002°38'0 0.0
2019-Feb-10 04:30N 39°33' E 002°38'0 0.0
2019-Feb-10 04:01N 39°33' E 002°38'0 0.0
2019-Feb-10 03:30N 39°33' E 002°38'0 0.0
2019-Feb-10 03:00N 39°33' E 002°38'0 0.0
2019-Feb-10 02:30N 39°33' E 002°38'0 0.0
2019-Feb-10 02:00N 39°33' E 002°38'0 0.0
2019-Feb-10 01:31N 39°33' E 002°38'0 0.0
2019-Feb-10 01:00N 39°33' E 002°38'0 0.0
2019-Feb-10 00:31N 39°33' E 002°38'0 0.0
2019-Feb-10 00:00N 39°33' E 002°38'0 0.0
2019-Feb-09 23:30N 39°33' E 002°38'0 0.0
2019-Feb-09 23:01N 39°33' E 002°38'0 0.0
2019-Feb-09 22:31N 39°33' E 002°38'0 0.0
2019-Feb-09 22:01N 39°33' E 002°38'0 0.0
2019-Feb-09 21:31N 39°33' E 002°38'0 0.0
2019-Feb-09 21:00N 39°33' E 002°38'0 0.0
2019-Feb-09 20:28N 39°33' E 002°38'0 0.0
2019-Feb-09 20:00N 39°33' E 002°38'0 0.0
2019-Feb-09 19:30N 39°33' E 002°38'0 0.0
2019-Feb-09 19:01N 39°33' E 002°38'0 0.0
2019-Feb-09 18:28N 39°33' E 002°38'0 0.0
2019-Feb-09 18:01N 39°33' E 002°38'0 0.0
2019-Feb-09 17:31N 39°33' E 002°38'0 0.0
2019-Feb-09 17:01N 39°33' E 002°38'0 0.0
2019-Feb-09 16:28N 39°33' E 002°38'0 0.0
2019-Feb-09 15:58N 39°33' E 002°38'0 0.0
2019-Feb-09 15:31N 39°33' E 002°38'0 0.0
2019-Feb-09 15:00N 39°33' E 002°38'0 0.0
2019-Feb-09 14:31N 39°33' E 002°38'0 0.0
2019-Feb-09 14:00N 39°33' E 002°38'0 0.0
2019-Feb-09 13:31N 39°33' E 002°38'0 0.0
2019-Feb-09 13:01N 39°33' E 002°38'0 0.0
2019-Feb-09 12:30N 39°33' E 002°38'0 0.0
2019-Feb-09 12:01N 39°33' E 002°38'0 0.0
2019-Feb-09 11:31N 39°33' E 002°38'0 0.0
2019-Feb-09 11:00N 39°33' E 002°38'0 0.0
2019-Feb-09 10:25N 39°33' E 002°38'0 0.0
2019-Feb-09 10:01N 39°33' E 002°38'0 0.0
2019-Feb-09 09:31N 39°33' E 002°38'0 0.0
2019-Feb-09 09:01N 39°33' E 002°38'0 0.0
2019-Feb-09 08:31N 39°33' E 002°38'0 0.0
2019-Feb-09 08:01N 39°33' E 002°38'0 0.0
2019-Feb-09 07:30N 39°33' E 002°38'0 0.0
2019-Feb-09 07:00N 39°33' E 002°38'0 0.0
2019-Feb-09 06:30N 39°33' E 002°38'0 0.0
2019-Feb-09 06:00N 39°33' E 002°38'0 0.0
2019-Feb-09 05:30N 39°33' E 002°38'0 0.0
2019-Feb-09 05:00N 39°33' E 002°38'0 0.0
2019-Feb-09 04:30N 39°33' E 002°38'0 0.0
2019-Feb-09 04:00N 39°33' E 002°38'0 0.0
2019-Feb-09 03:31N 39°33' E 002°38'0 0.0
2019-Feb-09 03:01N 39°33' E 002°38'0 0.0
2019-Feb-09 02:30N 39°33' E 002°38'0 0.0
2019-Feb-09 02:00N 39°33' E 002°38'0 0.0
2019-Feb-09 01:31N 39°33' E 002°38'0 0.0
2019-Feb-09 01:00N 39°33' E 002°38'0 0.0
2019-Feb-09 00:30N 39°33' E 002°38'0 0.0
2019-Feb-09 00:01N 39°33' E 002°38'0 0.0
2019-Feb-08 23:31N 39°33' E 002°38'0 0.0
2019-Feb-08 23:00N 39°33' E 002°38'0 0.0
2019-Feb-08 22:30N 39°33' E 002°38'0 0.0
2019-Feb-08 22:00N 39°33' E 002°38'0 0.0
2019-Feb-08 21:30N 39°33' E 002°38'0 0.0
2019-Feb-08 21:01N 39°33' E 002°38'0 0.0
2019-Feb-08 20:30N 39°33' E 002°38'0 0.0
2019-Feb-08 20:01N 39°33' E 002°38'0 0.0
2019-Feb-08 19:31N 39°33' E 002°38'0 0.0
2019-Feb-08 19:01N 39°33' E 002°38'0 0.0
2019-Feb-08 18:30N 39°33' E 002°38'0 0.0
2019-Feb-08 17:58N 39°33' E 002°38'0 0.0
2019-Feb-08 17:30N 39°33' E 002°38'0 0.0
2019-Feb-08 17:01N 39°33' E 002°38'0 0.0
2019-Feb-08 16:31N 39°33' E 002°38'0 0.0
2019-Feb-08 16:01N 39°33' E 002°38'0 0.0
2019-Feb-08 15:30N 39°33' E 002°38'0 0.0
2019-Feb-08 14:57N 39°33' E 002°38'0 0.0
2019-Feb-08 14:31N 39°33' E 002°38'0 0.0
2019-Feb-08 14:01N 39°33' E 002°38'0 0.0
2019-Feb-08 13:31N 39°33' E 002°38'0 0.0
2019-Feb-08 13:00N 39°33' E 002°38'0 0.0
2019-Feb-08 12:30N 39°33' E 002°38'0 0.0
2019-Feb-08 12:01N 39°33' E 002°38'0 0.0
2019-Feb-08 11:30N 39°33' E 002°38'0 0.0
2019-Feb-08 11:00N 39°33' E 002°38'0 0.0
2019-Feb-08 10:31N 39°33' E 002°38'0 0.0
2019-Feb-08 10:00N 39°33' E 002°38'0 0.0
2019-Feb-08 09:31N 39°33' E 002°38'0 0.0
2019-Feb-08 09:01N 39°33' E 002°38'0 0.0
2019-Feb-08 08:30N 39°33' E 002°38'0 0.0
2019-Feb-08 07:58N 39°33' E 002°38'0 0.0
2019-Feb-08 07:30N 39°33' E 002°38'0 0.0
2019-Feb-08 07:01N 39°33' E 002°38'0 0.0
2019-Feb-08 06:31N 39°33' E 002°38'0 0.0
2019-Feb-08 06:01N 39°33' E 002°38'0 0.0
2019-Feb-08 05:31N 39°33' E 002°38'0 0.0
2019-Feb-08 04:58N 39°33' E 002°38'0 0.0
2019-Feb-08 04:31N 39°33' E 002°38'0 0.0
2019-Feb-08 04:00N 39°33' E 002°38'0 0.0
2019-Feb-08 03:31N 39°33' E 002°38'0 0.0
2019-Feb-08 03:00N 39°33' E 002°38'0 0.0
2019-Feb-08 02:30N 39°33' E 002°38'0 0.0
2019-Feb-08 02:00N 39°33' E 002°38'0 0.0
2019-Feb-08 01:31N 39°33' E 002°38'0 0.0
2019-Feb-08 01:00N 39°33' E 002°38'0 0.0
2019-Feb-08 00:30N 39°33' E 002°38'0 0.0
2019-Feb-08 00:01N 39°33' E 002°38'0 0.0
2019-Feb-07 23:31N 39°33' E 002°38'0 0.0
2019-Feb-07 23:00N 39°33' E 002°38'0 0.0
2019-Feb-07 22:31N 39°33' E 002°38'0 0.0
2019-Feb-07 22:01N 39°33' E 002°38'0 0.0
2019-Feb-07 21:30N 39°33' E 002°38'0 0.0
2019-Feb-07 21:00N 39°33' E 002°38'0 0.0
2019-Feb-07 20:31N 39°33' E 002°38'0 0.0
2019-Feb-07 20:01N 39°33' E 002°38'0 0.0
2019-Feb-07 19:30N 39°33' E 002°38'0 0.0
2019-Feb-07 19:00N 39°33' E 002°38'0 0.0
2019-Feb-07 18:31N 39°33' E 002°38'0 0.0
2019-Feb-07 18:00N 39°33' E 002°38'0 0.0
2019-Feb-07 17:31N 39°33' E 002°38'0 0.0
2019-Feb-07 17:00N 39°33' E 002°38'0 0.0
2019-Feb-07 16:30N 39°33' E 002°38'0 0.0
2019-Feb-07 16:01N 39°33' E 002°38'0 0.0
2019-Feb-07 15:31N 39°33' E 002°38'0 0.0
2019-Feb-07 15:00N 39°33' E 002°38'0 0.0
2019-Feb-07 14:27N 39°33' E 002°38'0 0.0
2019-Feb-07 14:00N 39°33' E 002°38'0 0.0
2019-Feb-07 13:30N 39°33' E 002°38'0 0.0
2019-Feb-07 13:01N 39°33' E 002°38'0 0.0
2019-Feb-07 12:31N 39°33' E 002°38'0 0.0
2019-Feb-07 12:00N 39°33' E 002°38'0 0.0
2019-Feb-07 11:30N 39°33' E 002°38'0 0.0
2019-Feb-07 11:00N 39°33' E 002°38'0 0.0
2019-Feb-07 10:30N 39°33' E 002°38'0 0.0
2019-Feb-07 09:58N 39°33' E 002°38'0 0.0
2019-Feb-07 09:31N 39°33' E 002°38'0 0.0
2019-Feb-07 09:00N 39°33' E 002°38'0 0.0
2019-Feb-07 08:30N 39°33' E 002°38'0 0.0
2019-Feb-07 08:00N 39°33' E 002°38'0 0.0
2019-Feb-07 07:30N 39°33' E 002°38'0 0.0
2019-Feb-07 07:00N 39°33' E 002°38'0 0.0
2019-Feb-07 06:30N 39°33' E 002°38'0 0.0
2019-Feb-07 06:00N 39°33' E 002°38'0 0.0
2019-Feb-07 05:30N 39°33' E 002°38'0 0.0
2019-Feb-07 05:01N 39°33' E 002°38'0 0.0
2019-Feb-07 04:31N 39°33' E 002°38'0 0.0
2019-Feb-07 04:00N 39°33' E 002°38'0 0.0
2019-Feb-07 03:30N 39°33' E 002°38'0 0.0
2019-Feb-07 03:00N 39°33' E 002°38'0 0.0
2019-Feb-07 02:30N 39°33' E 002°38'0 0.0
2019-Feb-07 02:01N 39°33' E 002°38'0 0.0
2019-Feb-07 01:30N 39°33' E 002°38'0 0.0
2019-Feb-07 01:00N 39°33' E 002°38'0 0.0
2019-Feb-07 00:30N 39°33' E 002°38'0 0.0
2019-Feb-07 00:01N 39°33' E 002°38'0 0.0
2019-Feb-06 23:30N 39°33' E 002°38'0 0.0
2019-Feb-06 23:01N 39°33' E 002°38'0 0.0
2019-Feb-06 22:30N 39°33' E 002°38'0 0.0
2019-Feb-06 22:00N 39°33' E 002°38'0 0.0
2019-Feb-06 21:31N 39°33' E 002°38'0 0.0
2019-Feb-06 21:00N 39°33' E 002°38'0 0.0
2019-Feb-06 20:31N 39°33' E 002°38'0 0.0
2019-Feb-06 20:00N 39°33' E 002°38'0 0.0
2019-Feb-06 19:31N 39°33' E 002°38'0 0.0
2019-Feb-06 19:00N 39°33' E 002°38'0 0.0
2019-Feb-06 18:31N 39°33' E 002°38'0 0.0
2019-Feb-06 18:01N 39°33' E 002°38'0 0.0
2019-Feb-06 17:30N 39°33' E 002°38'0 0.0
2019-Feb-06 17:00N 39°33' E 002°38'0 0.0
2019-Feb-06 16:30N 39°33' E 002°38'0 0.0
2019-Feb-06 16:00N 39°33' E 002°38'0 0.0
2019-Feb-06 15:30N 39°33' E 002°38'0 0.0
2019-Feb-06 15:00N 39°33' E 002°38'0 0.0
2019-Feb-06 14:30N 39°33' E 002°38'0 0.0
2019-Feb-06 14:01N 39°33' E 002°38'0 0.0
2019-Feb-06 13:30N 39°33' E 002°38'0 0.0
2019-Feb-06 13:00N 39°33' E 002°38'0 0.0
2019-Feb-06 12:31N 39°33' E 002°38'0 0.0
2019-Feb-06 12:00N 39°33' E 002°38'0 0.0
2019-Feb-06 11:30N 39°33' E 002°38'0 0.0
2019-Feb-06 10:57N 39°33' E 002°38'0 0.0
2019-Feb-06 10:31N 39°33' E 002°38'0 0.0
2019-Feb-06 10:01N 39°33' E 002°38'0 0.0
2019-Feb-06 09:31N 39°33' E 002°38'0 0.0
2019-Feb-06 09:00N 39°33' E 002°38'0 0.0
2019-Feb-06 08:30N 39°33' E 002°38'  

Dump ship's entire track history